sensor_id;sensor_type;location;lat;lon;timestamp;temperature;humidity
38020;DHT22;23829;51.350;17.286;2024-01-30T00:00:06;16.00;35.70
38020;DHT22;23829;51.350;17.286;2024-01-30T00:02:33;16.30;35.30
38020;DHT22;23829;51.350;17.286;2024-01-30T00:05:00;16.50;35.10
38020;DHT22;23829;51.350;17.286;2024-01-30T00:07:26;16.40;35.10
38020;DHT22;23829;51.350;17.286;2024-01-30T00:09:53;16.30;35.30
38020;DHT22;23829;51.350;17.286;2024-01-30T00:12:19;16.20;35.60
38020;DHT22;23829;51.350;17.286;2024-01-30T00:14:45;16.40;35.10
38020;DHT22;23829;51.350;17.286;2024-01-30T00:17:11;16.60;34.80
38020;DHT22;23829;51.350;17.286;2024-01-30T00:19:38;16.50;34.60
38020;DHT22;23829;51.350;17.286;2024-01-30T00:22:04;16.40;35.10
38020;DHT22;23829;51.350;17.286;2024-01-30T00:24:31;16.70;35.00
38020;DHT22;23829;51.350;17.286;2024-01-30T00:26:57;16.70;34.70
38020;DHT22;23829;51.350;17.286;2024-01-30T00:29:23;16.80;34.50
38020;DHT22;23829;51.350;17.286;2024-01-30T00:31:51;16.50;34.70
38020;DHT22;23829;51.350;17.286;2024-01-30T00:34:18;16.70;34.80
38020;DHT22;23829;51.350;17.286;2024-01-30T00:36:45;16.80;34.50
38020;DHT22;23829;51.350;17.286;2024-01-30T00:39:11;16.70;34.50
38020;DHT22;23829;51.350;17.286;2024-01-30T00:41:37;16.60;34.70
38020;DHT22;23829;51.350;17.286;2024-01-30T00:44:04;16.60;34.80
38020;DHT22;23829;51.350;17.286;2024-01-30T00:46:30;16.30;35.10
38020;DHT22;23829;51.350;17.286;2024-01-30T00:48:56;16.50;35.20
38020;DHT22;23829;51.350;17.286;2024-01-30T00:51:23;16.60;35.00
38020;DHT22;23829;51.350;17.286;2024-01-30T00:53:49;16.70;34.90
38020;DHT22;23829;51.350;17.286;2024-01-30T00:56:15;16.40;34.90
38020;DHT22;23829;51.350;17.286;2024-01-30T00:58:44;16.30;36.20
38020;DHT22;23829;51.350;17.286;2024-01-30T01:01:10;16.30;35.30
38020;DHT22;23829;51.350;17.286;2024-01-30T01:03:37;16.10;35.60
38020;DHT22;23829;51.350;17.286;2024-01-30T01:06:03;15.90;36.00
38020;DHT22;23829;51.350;17.286;2024-01-30T01:08:30;15.90;36.10
38020;DHT22;23829;51.350;17.286;2024-01-30T01:10:56;15.90;36.10
38020;DHT22;23829;51.350;17.286;2024-01-30T01:13:23;15.90;36.30
38020;DHT22;23829;51.350;17.286;2024-01-30T01:15:49;15.80;36.40
38020;DHT22;23829;51.350;17.286;2024-01-30T01:18:15;16.00;36.20
38020;DHT22;23829;51.350;17.286;2024-01-30T01:20:41;16.20;35.70
38020;DHT22;23829;51.350;17.286;2024-01-30T01:23:08;16.00;36.00
38020;DHT22;23829;51.350;17.286;2024-01-30T01:25:34;15.90;36.30
38020;DHT22;23829;51.350;17.286;2024-01-30T01:28:01;15.70;36.50
38020;DHT22;23829;51.350;17.286;2024-01-30T01:30:27;15.70;36.70
38020;DHT22;23829;51.350;17.286;2024-01-30T01:32:55;15.50;37.00
38020;DHT22;23829;51.350;17.286;2024-01-30T01:35:23;15.50;37.30
38020;DHT22;23829;51.350;17.286;2024-01-30T01:37:51;15.50;37.40
38020;DHT22;23829;51.350;17.286;2024-01-30T01:40:26;15.60;37.20
38020;DHT22;23829;51.350;17.286;2024-01-30T01:42:55;15.60;37.20
38020;DHT22;23829;51.350;17.286;2024-01-30T01:45:21;15.70;36.70
38020;DHT22;23829;51.350;17.286;2024-01-30T01:47:51;15.80;36.70
38020;DHT22;23829;51.350;17.286;2024-01-30T01:50:18;15.70;36.80
38020;DHT22;23829;51.350;17.286;2024-01-30T01:52:49;15.60;37.10
38020;DHT22;23829;51.350;17.286;2024-01-30T01:55:16;15.60;37.20
38020;DHT22;23829;51.350;17.286;2024-01-30T01:57:47;15.80;36.70
38020;DHT22;23829;51.350;17.286;2024-01-30T02:00:14;15.80;36.60
38020;DHT22;23829;51.350;17.286;2024-01-30T02:02:43;16.00;36.50
38020;DHT22;23829;51.350;17.286;2024-01-30T02:05:11;15.90;36.40
38020;DHT22;23829;51.350;17.286;2024-01-30T02:07:38;16.10;36.40
38020;DHT22;23829;51.350;17.286;2024-01-30T02:10:04;16.00;36.30
38020;DHT22;23829;51.350;17.286;2024-01-30T02:12:31;15.90;37.20
38020;DHT22;23829;51.350;17.286;2024-01-30T02:14:57;16.10;36.70
38020;DHT22;23829;51.350;17.286;2024-01-30T02:17:24;16.10;36.20
38020;DHT22;23829;51.350;17.286;2024-01-30T02:19:50;16.00;36.30
38020;DHT22;23829;51.350;17.286;2024-01-30T02:22:16;16.00;36.40
38020;DHT22;23829;51.350;17.286;2024-01-30T02:24:44;15.70;36.70
38020;DHT22;23829;51.350;17.286;2024-01-30T02:27:10;15.90;36.60
38020;DHT22;23829;51.350;17.286;2024-01-30T02:29:36;15.80;36.70
38020;DHT22;23829;51.350;17.286;2024-01-30T02:32:04;15.80;36.80
38020;DHT22;23829;51.350;17.286;2024-01-30T02:34:30;16.00;36.70
38020;DHT22;23829;51.350;17.286;2024-01-30T02:36:56;16.20;36.30
38020;DHT22;23829;51.350;17.286;2024-01-30T02:39:23;16.20;36.20
38020;DHT22;23829;51.350;17.286;2024-01-30T02:41:49;16.20;36.00
38020;DHT22;23829;51.350;17.286;2024-01-30T02:44:15;16.00;36.20
38020;DHT22;23829;51.350;17.286;2024-01-30T02:46:42;16.00;36.30
38020;DHT22;23829;51.350;17.286;2024-01-30T02:49:08;16.10;36.90
38020;DHT22;23829;51.350;17.286;2024-01-30T02:51:35;16.20;35.80
38020;DHT22;23829;51.350;17.286;2024-01-30T02:54:01;16.10;36.20
38020;DHT22;23829;51.350;17.286;2024-01-30T02:56:27;16.80;35.40
38020;DHT22;23829;51.350;17.286;2024-01-30T02:58:53;17.30;34.20
38020;DHT22;23829;51.350;17.286;2024-01-30T03:01:20;17.10;34.30
38020;DHT22;23829;51.350;17.286;2024-01-30T03:03:46;16.90;34.40
38020;DHT22;23829;51.350;17.286;2024-01-30T03:06:13;16.80;34.70
38020;DHT22;23829;51.350;17.286;2024-01-30T03:08:41;16.80;35.30
38020;DHT22;23829;51.350;17.286;2024-01-30T03:11:07;16.80;34.50
38020;DHT22;23829;51.350;17.286;2024-01-30T03:13:33;16.70;34.70
38020;DHT22;23829;51.350;17.286;2024-01-30T03:16:00;16.60;34.80
38020;DHT22;23829;51.350;17.286;2024-01-30T03:18:26;16.20;35.30
38020;DHT22;23829;51.350;17.286;2024-01-30T03:20:52;16.00;35.70
38020;DHT22;23829;51.350;17.286;2024-01-30T03:23:18;15.90;36.10
38020;DHT22;23829;51.350;17.286;2024-01-30T03:25:45;15.80;36.20
38020;DHT22;23829;51.350;17.286;2024-01-30T03:28:11;15.80;36.50
38020;DHT22;23829;51.350;17.286;2024-01-30T03:30:38;15.80;36.50
38020;DHT22;23829;51.350;17.286;2024-01-30T03:33:04;15.90;36.40
38020;DHT22;23829;51.350;17.286;2024-01-30T03:35:31;16.20;35.90
38020;DHT22;23829;51.350;17.286;2024-01-30T03:37:57;16.50;35.50
38020;DHT22;23829;51.350;17.286;2024-01-30T03:40:24;16.60;35.40
38020;DHT22;23829;51.350;17.286;2024-01-30T03:42:50;16.30;35.40
38020;DHT22;23829;51.350;17.286;2024-01-30T03:45:16;15.90;36.20
38020;DHT22;23829;51.350;17.286;2024-01-30T03:47:45;15.60;36.80
38020;DHT22;23829;51.350;17.286;2024-01-30T03:50:12;15.70;37.00
38020;DHT22;23829;51.350;17.286;2024-01-30T03:52:38;15.60;37.10
38020;DHT22;23829;51.350;17.286;2024-01-30T03:55:05;15.50;37.10
38020;DHT22;23829;51.350;17.286;2024-01-30T03:57:31;15.20;37.50
38020;DHT22;23829;51.350;17.286;2024-01-30T03:59:58;15.20;37.70
38020;DHT22;23829;51.350;17.286;2024-01-30T04:02:24;15.30;37.60
38020;DHT22;23829;51.350;17.286;2024-01-30T04:04:51;15.40;37.60
38020;DHT22;23829;51.350;17.286;2024-01-30T04:07:17;15.20;37.50
38020;DHT22;23829;51.350;17.286;2024-01-30T04:09:44;15.40;37.60
38020;DHT22;23829;51.350;17.286;2024-01-30T04:12:10;15.50;37.30
38020;DHT22;23829;51.350;17.286;2024-01-30T04:14:38;15.40;37.30
38020;DHT22;23829;51.350;17.286;2024-01-30T04:17:05;15.30;37.30
38020;DHT22;23829;51.350;17.286;2024-01-30T04:19:31;15.50;37.30
38020;DHT22;23829;51.350;17.286;2024-01-30T04:21:58;16.00;36.20
38020;DHT22;23829;51.350;17.286;2024-01-30T04:24:24;16.10;36.00
38020;DHT22;23829;51.350;17.286;2024-01-30T04:26:56;16.10;35.70
38020;DHT22;23829;51.350;17.286;2024-01-30T04:29:23;16.30;35.30
38020;DHT22;23829;51.350;17.286;2024-01-30T04:31:49;16.10;35.40
38020;DHT22;23829;51.350;17.286;2024-01-30T04:34:17;15.90;35.70
38020;DHT22;23829;51.350;17.286;2024-01-30T04:36:44;16.10;35.50
38020;DHT22;23829;51.350;17.286;2024-01-30T04:39:14;16.30;34.90
38020;DHT22;23829;51.350;17.286;2024-01-30T04:41:40;15.90;35.50
38020;DHT22;23829;51.350;17.286;2024-01-30T04:44:06;15.90;35.70
38020;DHT22;23829;51.350;17.286;2024-01-30T04:46:33;16.30;35.10
38020;DHT22;23829;51.350;17.286;2024-01-30T04:49:00;16.40;34.90
38020;DHT22;23829;51.350;17.286;2024-01-30T04:51:27;16.30;34.80
38020;DHT22;23829;51.350;17.286;2024-01-30T04:53:53;16.30;35.00
38020;DHT22;23829;51.350;17.286;2024-01-30T04:56:19;16.20;35.00
38020;DHT22;23829;51.350;17.286;2024-01-30T04:58:46;16.20;34.90
38020;DHT22;23829;51.350;17.286;2024-01-30T05:01:16;16.20;35.00
38020;DHT22;23829;51.350;17.286;2024-01-30T05:03:44;16.40;34.60
38020;DHT22;23829;51.350;17.286;2024-01-30T05:06:10;16.20;34.90
38020;DHT22;23829;51.350;17.286;2024-01-30T05:08:36;16.30;34.90
38020;DHT22;23829;51.350;17.286;2024-01-30T05:11:05;16.40;34.50
38020;DHT22;23829;51.350;17.286;2024-01-30T05:13:31;16.10;34.80
38020;DHT22;23829;51.350;17.286;2024-01-30T05:15:58;15.70;35.40
38020;DHT22;23829;51.350;17.286;2024-01-30T05:18:25;15.50;35.90
38020;DHT22;23829;51.350;17.286;2024-01-30T05:20:51;15.10;36.60
38020;DHT22;23829;51.350;17.286;2024-01-30T05:23:18;14.80;37.10
38020;DHT22;23829;51.350;17.286;2024-01-30T05:25:44;14.90;37.30
38020;DHT22;23829;51.350;17.286;2024-01-30T05:28:10;14.70;37.70
38020;DHT22;23829;51.350;17.286;2024-01-30T05:30:37;14.60;37.80
38020;DHT22;23829;51.350;17.286;2024-01-30T05:33:03;14.90;37.60
38020;DHT22;23829;51.350;17.286;2024-01-30T05:35:30;15.00;37.30
38020;DHT22;23829;51.350;17.286;2024-01-30T05:37:57;14.90;38.00
38020;DHT22;23829;51.350;17.286;2024-01-30T05:40:24;14.90;37.50
38020;DHT22;23829;51.350;17.286;2024-01-30T05:42:50;14.80;37.40
38020;DHT22;23829;51.350;17.286;2024-01-30T05:45:16;14.60;37.90
38020;DHT22;23829;51.350;17.286;2024-01-30T05:47:43;14.50;38.30
38020;DHT22;23829;51.350;17.286;2024-01-30T05:50:09;14.50;38.40
38020;DHT22;23829;51.350;17.286;2024-01-30T05:52:35;14.40;38.50
38020;DHT22;23829;51.350;17.286;2024-01-30T05:55:02;14.40;38.40
38020;DHT22;23829;51.350;17.286;2024-01-30T05:57:29;14.50;38.50
38020;DHT22;23829;51.350;17.286;2024-01-30T05:59:56;14.70;38.10
38020;DHT22;23829;51.350;17.286;2024-01-30T06:02:22;14.80;38.10
38020;DHT22;23829;51.350;17.286;2024-01-30T06:04:49;15.20;37.80
38020;DHT22;23829;51.350;17.286;2024-01-30T06:07:16;15.30;37.10
38020;DHT22;23829;51.350;17.286;2024-01-30T06:09:43;15.40;36.90
38020;DHT22;23829;51.350;17.286;2024-01-30T06:12:10;15.10;37.20
38020;DHT22;23829;51.350;17.286;2024-01-30T06:14:38;15.10;37.20
38020;DHT22;23829;51.350;17.286;2024-01-30T06:17:05;15.00;37.50
38020;DHT22;23829;51.350;17.286;2024-01-30T06:19:31;15.10;37.40
38020;DHT22;23829;51.350;17.286;2024-01-30T06:21:58;15.10;37.40
38020;DHT22;23829;51.350;17.286;2024-01-30T06:24:24;15.10;37.50
38020;DHT22;23829;51.350;17.286;2024-01-30T06:26:50;14.90;37.80
38020;DHT22;23829;51.350;17.286;2024-01-30T06:29:17;14.70;38.30
38020;DHT22;23829;51.350;17.286;2024-01-30T06:31:43;14.60;38.80
38020;DHT22;23829;51.350;17.286;2024-01-30T06:34:10;14.80;38.40
38020;DHT22;23829;51.350;17.286;2024-01-30T06:36:38;14.70;38.40
38020;DHT22;23829;51.350;17.286;2024-01-30T06:39:04;14.60;38.80
38020;DHT22;23829;51.350;17.286;2024-01-30T06:41:31;14.60;38.90
38020;DHT22;23829;51.350;17.286;2024-01-30T06:43:58;14.70;38.80
38020;DHT22;23829;51.350;17.286;2024-01-30T06:46:24;14.80;38.70
38020;DHT22;23829;51.350;17.286;2024-01-30T06:48:51;14.80;38.30
38020;DHT22;23829;51.350;17.286;2024-01-30T06:51:17;14.80;38.50
38020;DHT22;23829;51.350;17.286;2024-01-30T06:53:44;14.80;38.30
38020;DHT22;23829;51.350;17.286;2024-01-30T06:56:10;15.00;38.20
38020;DHT22;23829;51.350;17.286;2024-01-30T06:58:37;15.10;37.80
38020;DHT22;23829;51.350;17.286;2024-01-30T07:01:03;15.30;37.80
38020;DHT22;23829;51.350;17.286;2024-01-30T07:03:30;15.20;37.40
38020;DHT22;23829;51.350;17.286;2024-01-30T07:05:56;15.40;37.40
38020;DHT22;23829;51.350;17.286;2024-01-30T07:08:23;15.70;37.20
38020;DHT22;23829;51.350;17.286;2024-01-30T07:10:49;15.90;36.60
38020;DHT22;23829;51.350;17.286;2024-01-30T07:13:16;16.30;36.10
38020;DHT22;23829;51.350;17.286;2024-01-30T07:15:42;16.70;35.30
38020;DHT22;23829;51.350;17.286;2024-01-30T07:18:09;16.60;35.40
38020;DHT22;23829;51.350;17.286;2024-01-30T07:20:36;16.60;35.30
38020;DHT22;23829;51.350;17.286;2024-01-30T07:23:02;16.50;35.30
38020;DHT22;23829;51.350;17.286;2024-01-30T07:25:29;16.60;35.40
38020;DHT22;23829;51.350;17.286;2024-01-30T07:27:56;16.50;35.40
38020;DHT22;23829;51.350;17.286;2024-01-30T07:30:22;16.60;35.20
38020;DHT22;23829;51.350;17.286;2024-01-30T07:32:49;16.80;35.10
38020;DHT22;23829;51.350;17.286;2024-01-30T07:35:16;16.50;35.40
38020;DHT22;23829;51.350;17.286;2024-01-30T07:37:43;16.70;35.40
38020;DHT22;23829;51.350;17.286;2024-01-30T07:40:09;17.20;34.60
38020;DHT22;23829;51.350;17.286;2024-01-30T07:42:36;17.50;34.10
38020;DHT22;23829;51.350;17.286;2024-01-30T07:45:02;17.40;34.00
38020;DHT22;23829;51.350;17.286;2024-01-30T07:47:36;17.30;34.00
38020;DHT22;23829;51.350;17.286;2024-01-30T07:50:11;17.00;34.40
38020;DHT22;23829;51.350;17.286;2024-01-30T07:52:40;16.90;34.80
38020;DHT22;23829;51.350;17.286;2024-01-30T07:55:11;16.90;35.10
38020;DHT22;23829;51.350;17.286;2024-01-30T07:57:39;16.60;35.20
38020;DHT22;23829;51.350;17.286;2024-01-30T08:00:06;16.90;34.80
38020;DHT22;23829;51.350;17.286;2024-01-30T08:02:34;16.80;34.80
38020;DHT22;23829;51.350;17.286;2024-01-30T08:05:01;16.50;35.40
38020;DHT22;23829;51.350;17.286;2024-01-30T08:07:27;16.50;36.30
38020;DHT22;23829;51.350;17.286;2024-01-30T08:09:55;16.30;36.00
38020;DHT22;23829;51.350;17.286;2024-01-30T08:12:22;16.20;36.40
38020;DHT22;23829;51.350;17.286;2024-01-30T08:14:48;16.70;35.80
38020;DHT22;23829;51.350;17.286;2024-01-30T08:17:14;16.90;35.10
38020;DHT22;23829;51.350;17.286;2024-01-30T08:19:40;17.00;35.20
38020;DHT22;23829;51.350;17.286;2024-01-30T08:22:07;17.40;34.50
38020;DHT22;23829;51.350;17.286;2024-01-30T08:24:33;17.70;34.00
38020;DHT22;23829;51.350;17.286;2024-01-30T08:27:00;17.70;33.60
38020;DHT22;23829;51.350;17.286;2024-01-30T08:29:28;17.80;33.90
38020;DHT22;23829;51.350;17.286;2024-01-30T08:31:55;17.60;33.70
38020;DHT22;23829;51.350;17.286;2024-01-30T08:34:21;17.60;34.10
38020;DHT22;23829;51.350;17.286;2024-01-30T08:36:48;17.40;34.20
38020;DHT22;23829;51.350;17.286;2024-01-30T08:39:14;17.50;34.00
38020;DHT22;23829;51.350;17.286;2024-01-30T08:41:40;17.70;33.90
38020;DHT22;23829;51.350;17.286;2024-01-30T08:44:07;18.00;33.40
38020;DHT22;23829;51.350;17.286;2024-01-30T08:46:33;18.20;33.00
38020;DHT22;23829;51.350;17.286;2024-01-30T08:48:59;18.00;33.20
38020;DHT22;23829;51.350;17.286;2024-01-30T08:51:26;18.40;32.60
38020;DHT22;23829;51.350;17.286;2024-01-30T08:53:52;18.60;32.30
38020;DHT22;23829;51.350;17.286;2024-01-30T08:56:20;18.80;32.10
38020;DHT22;23829;51.350;17.286;2024-01-30T08:58:46;18.90;31.50
38020;DHT22;23829;51.350;17.286;2024-01-30T09:01:12;19.00;31.60
38020;DHT22;23829;51.350;17.286;2024-01-30T09:03:39;19.00;31.60
38020;DHT22;23829;51.350;17.286;2024-01-30T09:06:10;18.70;31.80
38020;DHT22;23829;51.350;17.286;2024-01-30T09:08:36;19.30;31.50
38020;DHT22;23829;51.350;17.286;2024-01-30T09:11:11;19.10;31.30
38020;DHT22;23829;51.350;17.286;2024-01-30T09:13:37;18.80;31.40
38020;DHT22;23829;51.350;17.286;2024-01-30T09:16:05;18.80;31.70
38020;DHT22;23829;51.350;17.286;2024-01-30T09:18:31;19.00;31.50
38020;DHT22;23829;51.350;17.286;2024-01-30T09:20:58;19.30;31.40
38020;DHT22;23829;51.350;17.286;2024-01-30T09:23:24;19.50;30.60
38020;DHT22;23829;51.350;17.286;2024-01-30T09:25:51;19.20;31.00
38020;DHT22;23829;51.350;17.286;2024-01-30T09:28:17;19.10;31.10
38020;DHT22;23829;51.350;17.286;2024-01-30T09:30:44;19.00;31.20
38020;DHT22;23829;51.350;17.286;2024-01-30T09:33:10;19.20;31.20
38020;DHT22;23829;51.350;17.286;2024-01-30T09:35:36;19.10;31.60
38020;DHT22;23829;51.350;17.286;2024-01-30T09:38:03;19.60;31.00
38020;DHT22;23829;51.350;17.286;2024-01-30T09:40:29;19.60;30.50
38020;DHT22;23829;51.350;17.286;2024-01-30T09:42:56;19.20;31.10
38020;DHT22;23829;51.350;17.286;2024-01-30T09:45:25;19.10;31.30
38020;DHT22;23829;51.350;17.286;2024-01-30T09:47:52;19.30;31.40
38020;DHT22;23829;51.350;17.286;2024-01-30T09:50:19;19.30;31.40
38020;DHT22;23829;51.350;17.286;2024-01-30T09:52:49;19.70;31.00
38020;DHT22;23829;51.350;17.286;2024-01-30T09:55:17;19.60;30.60
38020;DHT22;23829;51.350;17.286;2024-01-30T09:57:43;19.40;31.00
38020;DHT22;23829;51.350;17.286;2024-01-30T10:00:10;19.70;30.90
38020;DHT22;23829;51.350;17.286;2024-01-30T10:02:40;19.70;30.70
38020;DHT22;23829;51.350;17.286;2024-01-30T10:05:08;19.90;30.50
38020;DHT22;23829;51.350;17.286;2024-01-30T10:07:35;19.60;30.70
38020;DHT22;23829;51.350;17.286;2024-01-30T10:10:02;19.60;31.10
38020;DHT22;23829;51.350;17.286;2024-01-30T10:12:29;20.60;30.00
38020;DHT22;23829;51.350;17.286;2024-01-30T10:14:56;20.50;29.80
38020;DHT22;23829;51.350;17.286;2024-01-30T10:17:25;20.40;29.80
38020;DHT22;23829;51.350;17.286;2024-01-30T10:19:53;20.40;29.90
38020;DHT22;23829;51.350;17.286;2024-01-30T10:22:19;20.30;29.90
38020;DHT22;23829;51.350;17.286;2024-01-30T10:24:46;20.90;29.30
38020;DHT22;23829;51.350;17.286;2024-01-30T10:27:12;20.90;29.40
38020;DHT22;23829;51.350;17.286;2024-01-30T10:29:39;20.90;29.50
38020;DHT22;23829;51.350;17.286;2024-01-30T10:32:05;20.80;29.40
38020;DHT22;23829;51.350;17.286;2024-01-30T10:34:32;20.70;29.50
38020;DHT22;23829;51.350;17.286;2024-01-30T10:37:08;20.60;29.90
38020;DHT22;23829;51.350;17.286;2024-01-30T10:39:39;20.90;29.80
38020;DHT22;23829;51.350;17.286;2024-01-30T10:42:13;21.20;28.90
38020;DHT22;23829;51.350;17.286;2024-01-30T10:45:06;21.80;28.10
38020;DHT22;23829;51.350;17.286;2024-01-30T10:47:45;21.00;28.70
38020;DHT22;23829;51.350;17.286;2024-01-30T10:50:12;20.60;29.60
38020;DHT22;23829;51.350;17.286;2024-01-30T10:52:41;21.00;29.20
38020;DHT22;23829;51.350;17.286;2024-01-30T10:55:08;21.30;28.50
38020;DHT22;23829;51.350;17.286;2024-01-30T10:57:35;21.80;27.80
38020;DHT22;23829;51.350;17.286;2024-01-30T11:00:07;21.60;27.80
38020;DHT22;23829;51.350;17.286;2024-01-30T11:02:42;21.70;27.80
38020;DHT22;23829;51.350;17.286;2024-01-30T11:05:10;22.00;27.80
38020;DHT22;23829;51.350;17.286;2024-01-30T11:07:39;21.90;28.40
38020;DHT22;23829;51.350;17.286;2024-01-30T11:10:06;21.70;28.30
38020;DHT22;23829;51.350;17.286;2024-01-30T11:12:39;21.50;28.50
38020;DHT22;23829;51.350;17.286;2024-01-30T11:15:15;21.00;28.70
38020;DHT22;23829;51.350;17.286;2024-01-30T11:17:41;21.20;28.80
38020;DHT22;23829;51.350;17.286;2024-01-30T11:20:36;21.00;29.00
38020;DHT22;23829;51.350;17.286;2024-01-30T11:23:02;21.00;29.10
38020;DHT22;23829;51.350;17.286;2024-01-30T11:25:32;21.20;28.90
38020;DHT22;23829;51.350;17.286;2024-01-30T11:28:00;21.50;28.20
38020;DHT22;23829;51.350;17.286;2024-01-30T11:30:31;21.60;28.20
38020;DHT22;23829;51.350;17.286;2024-01-30T11:33:08;21.70;27.90
38020;DHT22;23829;51.350;17.286;2024-01-30T11:35:36;21.70;27.90
38020;DHT22;23829;51.350;17.286;2024-01-30T11:38:04;22.00;27.40
38020;DHT22;23829;51.350;17.286;2024-01-30T11:40:31;22.10;27.40
38020;DHT22;23829;51.350;17.286;2024-01-30T11:43:00;22.10;27.70
38020;DHT22;23829;51.350;17.286;2024-01-30T11:45:27;22.20;27.60
38020;DHT22;23829;51.350;17.286;2024-01-30T11:47:54;22.10;27.60
38020;DHT22;23829;51.350;17.286;2024-01-30T11:50:21;21.80;28.00
38020;DHT22;23829;51.350;17.286;2024-01-30T11:52:48;21.80;28.00
38020;DHT22;23829;51.350;17.286;2024-01-30T11:55:15;21.80;28.10
38020;DHT22;23829;51.350;17.286;2024-01-30T11:57:41;22.10;28.30
38020;DHT22;23829;51.350;17.286;2024-01-30T12:00:16;21.90;27.90
38020;DHT22;23829;51.350;17.286;2024-01-30T12:02:44;22.10;27.60
38020;DHT22;23829;51.350;17.286;2024-01-30T12:05:10;22.00;27.50
38020;DHT22;23829;51.350;17.286;2024-01-30T12:07:37;22.20;27.70
38020;DHT22;23829;51.350;17.286;2024-01-30T12:10:04;22.70;27.00
38020;DHT22;23829;51.350;17.286;2024-01-30T12:12:31;22.70;27.10
38020;DHT22;23829;51.350;17.286;2024-01-30T12:14:58;22.60;26.60
38020;DHT22;23829;51.350;17.286;2024-01-30T12:17:31;22.10;28.00
38020;DHT22;23829;51.350;17.286;2024-01-30T12:20:12;21.50;27.80
38020;DHT22;23829;51.350;17.286;2024-01-30T12:22:48;21.70;27.90
38020;DHT22;23829;51.350;17.286;2024-01-30T12:25:17;21.70;27.80
38020;DHT22;23829;51.350;17.286;2024-01-30T12:27:44;22.10;27.70
38020;DHT22;23829;51.350;17.286;2024-01-30T12:30:13;22.40;27.40
38020;DHT22;23829;51.350;17.286;2024-01-30T12:32:45;22.40;27.30
38020;DHT22;23829;51.350;17.286;2024-01-30T12:35:13;22.30;27.60
38020;DHT22;23829;51.350;17.286;2024-01-30T12:37:40;22.10;28.00
38020;DHT22;23829;51.350;17.286;2024-01-30T12:40:07;21.90;28.10
38020;DHT22;23829;51.350;17.286;2024-01-30T12:42:34;22.00;28.00
38020;DHT22;23829;51.350;17.286;2024-01-30T12:45:02;22.20;28.10
38020;DHT22;23829;51.350;17.286;2024-01-30T12:47:29;22.00;28.10
38020;DHT22;23829;51.350;17.286;2024-01-30T12:49:56;22.00;28.20
38020;DHT22;23829;51.350;17.286;2024-01-30T12:52:22;22.20;28.20
38020;DHT22;23829;51.350;17.286;2024-01-30T12:54:50;21.80;28.30
38020;DHT22;23829;51.350;17.286;2024-01-30T12:57:17;21.70;28.30
38020;DHT22;23829;51.350;17.286;2024-01-30T12:59:44;22.10;28.20
38020;DHT22;23829;51.350;17.286;2024-01-30T13:02:12;22.40;27.90
38020;DHT22;23829;51.350;17.286;2024-01-30T13:04:39;22.40;27.70
38020;DHT22;23829;51.350;17.286;2024-01-30T13:07:06;22.50;27.40
38020;DHT22;23829;51.350;17.286;2024-01-30T13:09:32;22.20;27.60
38020;DHT22;23829;51.350;17.286;2024-01-30T13:11:59;22.30;27.70
38020;DHT22;23829;51.350;17.286;2024-01-30T13:14:28;22.00;27.90
38020;DHT22;23829;51.350;17.286;2024-01-30T13:16:55;22.20;27.90
38020;DHT22;23829;51.350;17.286;2024-01-30T13:19:21;22.40;27.40
38020;DHT22;23829;51.350;17.286;2024-01-30T13:21:47;22.00;27.80
38020;DHT22;23829;51.350;17.286;2024-01-30T13:24:14;21.90;28.10
38020;DHT22;23829;51.350;17.286;2024-01-30T13:26:42;22.10;28.00
38020;DHT22;23829;51.350;17.286;2024-01-30T13:29:09;22.00;27.90
38020;DHT22;23829;51.350;17.286;2024-01-30T13:31:36;22.10;27.90
38020;DHT22;23829;51.350;17.286;2024-01-30T13:34:02;22.40;27.70
38020;DHT22;23829;51.350;17.286;2024-01-30T13:36:29;22.50;28.10
38020;DHT22;23829;51.350;17.286;2024-01-30T13:38:55;23.00;27.20
38020;DHT22;23829;51.350;17.286;2024-01-30T13:41:22;22.80;27.20
38020;DHT22;23829;51.350;17.286;2024-01-30T13:43:49;22.50;27.70
38020;DHT22;23829;51.350;17.286;2024-01-30T13:46:15;22.30;27.60
38020;DHT22;23829;51.350;17.286;2024-01-30T13:48:41;22.20;27.80
38020;DHT22;23829;51.350;17.286;2024-01-30T13:51:08;22.10;27.90
38020;DHT22;23829;51.350;17.286;2024-01-30T13:53:34;22.00;27.90
38020;DHT22;23829;51.350;17.286;2024-01-30T13:56:00;22.00;28.00
38020;DHT22;23829;51.350;17.286;2024-01-30T13:58:27;21.80;28.20
38020;DHT22;23829;51.350;17.286;2024-01-30T14:00:53;21.50;28.40
38020;DHT22;23829;51.350;17.286;2024-01-30T14:03:20;21.50;28.20
38020;DHT22;23829;51.350;17.286;2024-01-30T14:05:46;21.50;28.30
38020;DHT22;23829;51.350;17.286;2024-01-30T14:08:13;21.40;28.40
38020;DHT22;23829;51.350;17.286;2024-01-30T14:10:39;21.10;28.70
38020;DHT22;23829;51.350;17.286;2024-01-30T14:13:07;20.90;28.90
38020;DHT22;23829;51.350;17.286;2024-01-30T14:15:33;20.90;29.00
38020;DHT22;23829;51.350;17.286;2024-01-30T14:18:00;21.30;28.70
38020;DHT22;23829;51.350;17.286;2024-01-30T14:20:27;21.80;28.20
38020;DHT22;23829;51.350;17.286;2024-01-30T14:22:54;21.90;28.00
38020;DHT22;23829;51.350;17.286;2024-01-30T14:25:21;22.00;27.90
38020;DHT22;23829;51.350;17.286;2024-01-30T14:27:47;22.30;27.50
38020;DHT22;23829;51.350;17.286;2024-01-30T14:30:14;22.20;27.50
38020;DHT22;23829;51.350;17.286;2024-01-30T14:32:41;22.10;27.60
38020;DHT22;23829;51.350;17.286;2024-01-30T14:35:08;21.70;28.10
38020;DHT22;23829;51.350;17.286;2024-01-30T14:37:35;21.80;28.00
38020;DHT22;23829;51.350;17.286;2024-01-30T14:40:01;21.70;28.20
38020;DHT22;23829;51.350;17.286;2024-01-30T14:42:28;21.20;28.30
38020;DHT22;23829;51.350;17.286;2024-01-30T14:44:57;21.20;28.80
38020;DHT22;23829;51.350;17.286;2024-01-30T14:47:24;21.60;28.20
38020;DHT22;23829;51.350;17.286;2024-01-30T14:49:51;21.50;28.40
38020;DHT22;23829;51.350;17.286;2024-01-30T14:52:18;21.30;28.40
38020;DHT22;23829;51.350;17.286;2024-01-30T14:54:44;21.40;28.50
38020;DHT22;23829;51.350;17.286;2024-01-30T14:57:11;21.50;28.40
38020;DHT22;23829;51.350;17.286;2024-01-30T14:59:37;21.40;28.40
38020;DHT22;23829;51.350;17.286;2024-01-30T15:02:03;21.20;28.60
38020;DHT22;23829;51.350;17.286;2024-01-30T15:04:30;21.30;28.50
38020;DHT22;23829;51.350;17.286;2024-01-30T15:06:56;21.40;28.40
38020;DHT22;23829;51.350;17.286;2024-01-30T15:09:22;21.30;28.50
38020;DHT22;23829;51.350;17.286;2024-01-30T15:11:49;21.20;28.60
38020;DHT22;23829;51.350;17.286;2024-01-30T15:14:16;21.40;28.60